To NAV CANADA Home Page Login to a new session Search on AWWS site Feedback and Comments Disclaimer Vers la page française équivalente Tips FAQ What's new on the site To the Forecasts and Observations / NOTAM section To "File a Flight Plan" website Publications and other links Update of the User's profile FIC Telephone Numbers My Weather Data Folder Route Weather Data Regional Weather Data Local Weather Data To the Forecasts and Observations / NOTAM section
Request Generated 12/04/2016 at 22:20:21 UTC . Weather information available at that time is displayed.

METAR/TAF

WINDSOR/ON    

SPECI CYQG 042216Z 09003KT 12SM -SN SCT026 OVC080 03/M00 A3000 RMK
SC3AS5 SLP168=
METAR CYQG 042200Z 09004KT 15SM FEW026 OVC090 03/M01 A3001 RMK SC2AS6
SLP171=
METAR CYQG 042100Z 11007KT 15SM FEW027 OVC110 03/M01 A3002 RMK SC2AS6
PRESFR SLP174=
METAR CYQG 042000Z 13006KT 15SM SCT030 OVC110 04/M02 A3005 RMK SC4AS4
SLP184=

TAF CYQG 041738Z 0418/0518 17005KT P6SM BKN030 OVC130
FM042200 14007KT P6SM -RA BKN030 OVC080
FM050200 16008KT 2SM -SNRA BR BKN006 OVC025
FM050600 24008KT 5SM BR OVC006
FM050900 26010KT P6SM OVC010
FM051200 26012KT P6SM BKN020
RMK NXT FCST BY 050000Z=
Your time UTC time
Weather data provided by Environment Canada and NAV CANADA